sensor_id;sensor_type;location;lat;lon;timestamp;P1;durP1;ratioP1;P2;durP2;ratioP2
64682;SDS011;51107;47.652;19.016;2023-12-20T00:01:59;10.35;;;4.70;;
64682;SDS011;51107;47.652;19.016;2023-12-20T00:04:27;6.32;;;3.55;;
64682;SDS011;51107;47.652;19.016;2023-12-20T00:06:56;13.05;;;5.53;;
64682;SDS011;51107;47.652;19.016;2023-12-20T00:09:24;12.40;;;6.12;;
64682;SDS011;51107;47.652;19.016;2023-12-20T00:11:52;12.32;;;3.87;;
64682;SDS011;51107;47.652;19.016;2023-12-20T00:14:20;11.98;;;5.05;;
64682;SDS011;51107;47.652;19.016;2023-12-20T00:16:48;4.72;;;2.95;;
64682;SDS011;51107;47.652;19.016;2023-12-20T00:19:16;9.25;;;3.60;;
64682;SDS011;51107;47.652;19.016;2023-12-20T00:21:45;8.20;;;4.05;;
64682;SDS011;51107;47.652;19.016;2023-12-20T00:24:13;8.32;;;4.25;;
64682;SDS011;51107;47.652;19.016;2023-12-20T00:26:41;8.80;;;3.50;;
64682;SDS011;51107;47.652;19.016;2023-12-20T00:29:09;7.20;;;2.70;;
64682;SDS011;51107;47.652;19.016;2023-12-20T00:31:37;9.93;;;4.28;;
64682;SDS011;51107;47.652;19.016;2023-12-20T00:34:06;9.95;;;3.92;;
64682;SDS011;51107;47.652;19.016;2023-12-20T00:36:34;7.97;;;3.40;;
64682;SDS011;51107;47.652;19.016;2023-12-20T00:39:02;5.65;;;3.90;;
64682;SDS011;51107;47.652;19.016;2023-12-20T00:41:31;3.37;;;2.08;;
64682;SDS011;51107;47.652;19.016;2023-12-20T00:43:59;7.25;;;2.83;;
64682;SDS011;51107;47.652;19.016;2023-12-20T00:46:27;6.70;;;3.47;;
64682;SDS011;51107;47.652;19.016;2023-12-20T00:48:55;15.98;;;4.43;;
64682;SDS011;51107;47.652;19.016;2023-12-20T00:51:23;8.48;;;5.32;;
64682;SDS011;51107;47.652;19.016;2023-12-20T00:53:51;6.00;;;2.72;;
64682;SDS011;51107;47.652;19.016;2023-12-20T00:56:23;5.03;;;2.20;;
64682;SDS011;51107;47.652;19.016;2023-12-20T00:58:51;8.65;;;4.85;;
64682;SDS011;51107;47.652;19.016;2023-12-20T01:01:19;5.95;;;2.92;;
64682;SDS011;51107;47.652;19.016;2023-12-20T01:03:48;5.32;;;1.98;;
64682;SDS011;51107;47.652;19.016;2023-12-20T01:06:19;9.80;;;3.80;;
64682;SDS011;51107;47.652;19.016;2023-12-20T01:08:47;3.47;;;2.20;;
64682;SDS011;51107;47.652;19.016;2023-12-20T01:11:18;6.75;;;3.65;;
64682;SDS011;51107;47.652;19.016;2023-12-20T01:13:46;7.37;;;2.80;;
64682;SDS011;51107;47.652;19.016;2023-12-20T01:16:13;4.80;;;2.72;;
64682;SDS011;51107;47.652;19.016;2023-12-20T01:18:42;6.00;;;4.03;;
64682;SDS011;51107;47.652;19.016;2023-12-20T01:21:10;7.65;;;3.05;;
64682;SDS011;51107;47.652;19.016;2023-12-20T01:23:38;6.35;;;3.78;;
64682;SDS011;51107;47.652;19.016;2023-12-20T01:26:06;8.57;;;3.60;;
64682;SDS011;51107;47.652;19.016;2023-12-20T01:28:34;4.68;;;2.03;;
64682;SDS011;51107;47.652;19.016;2023-12-20T01:31:02;5.50;;;2.45;;
64682;SDS011;51107;47.652;19.016;2023-12-20T01:33:32;10.15;;;3.22;;
64682;SDS011;51107;47.652;19.016;2023-12-20T01:36:00;6.30;;;2.83;;
64682;SDS011;51107;47.652;19.016;2023-12-20T01:38:28;7.65;;;3.28;;
64682;SDS011;51107;47.652;19.016;2023-12-20T01:40:56;7.45;;;3.83;;
64682;SDS011;51107;47.652;19.016;2023-12-20T01:43:24;1.90;;;1.37;;
64682;SDS011;51107;47.652;19.016;2023-12-20T01:45:56;3.90;;;2.00;;
64682;SDS011;51107;47.652;19.016;2023-12-20T01:48:25;4.20;;;1.83;;
64682;SDS011;51107;47.652;19.016;2023-12-20T01:50:55;8.13;;;4.35;;
64682;SDS011;51107;47.652;19.016;2023-12-20T01:53:23;4.75;;;3.22;;
64682;SDS011;51107;47.652;19.016;2023-12-20T01:55:56;5.90;;;4.22;;
64682;SDS011;51107;47.652;19.016;2023-12-20T01:58:26;6.75;;;3.50;;
64682;SDS011;51107;47.652;19.016;2023-12-20T02:00:56;5.55;;;2.80;;
64682;SDS011;51107;47.652;19.016;2023-12-20T02:03:25;6.50;;;2.53;;
64682;SDS011;51107;47.652;19.016;2023-12-20T02:05:54;8.55;;;4.72;;
64682;SDS011;51107;47.652;19.016;2023-12-20T02:08:22;5.72;;;3.00;;
64682;SDS011;51107;47.652;19.016;2023-12-20T02:10:50;6.80;;;2.65;;
64682;SDS011;51107;47.652;19.016;2023-12-20T02:13:18;3.85;;;1.73;;
64682;SDS011;51107;47.652;19.016;2023-12-20T02:15:47;4.95;;;2.42;;
64682;SDS011;51107;47.652;19.016;2023-12-20T02:18:15;4.62;;;1.80;;
64682;SDS011;51107;47.652;19.016;2023-12-20T02:20:44;3.62;;;2.08;;
64682;SDS011;51107;47.652;19.016;2023-12-20T02:23:13;7.72;;;2.87;;
64682;SDS011;51107;47.652;19.016;2023-12-20T02:25:41;3.70;;;2.08;;
64682;SDS011;51107;47.652;19.016;2023-12-20T02:28:09;6.28;;;3.15;;
64682;SDS011;51107;47.652;19.016;2023-12-20T02:30:37;4.90;;;3.28;;
64682;SDS011;51107;47.652;19.016;2023-12-20T02:33:07;7.62;;;4.10;;
64682;SDS011;51107;47.652;19.016;2023-12-20T02:35:38;9.95;;;3.97;;
64682;SDS011;51107;47.652;19.016;2023-12-20T02:38:06;5.28;;;2.92;;
64682;SDS011;51107;47.652;19.016;2023-12-20T02:40:34;7.72;;;3.28;;
64682;SDS011;51107;47.652;19.016;2023-12-20T02:43:02;10.07;;;4.00;;
64682;SDS011;51107;47.652;19.016;2023-12-20T02:45:30;7.35;;;3.37;;
64682;SDS011;51107;47.652;19.016;2023-12-20T02:47:58;7.72;;;4.20;;
64682;SDS011;51107;47.652;19.016;2023-12-20T02:50:27;4.12;;;3.12;;
64682;SDS011;51107;47.652;19.016;2023-12-20T02:52:55;8.02;;;4.25;;
64682;SDS011;51107;47.652;19.016;2023-12-20T02:55:23;3.22;;;2.37;;
64682;SDS011;51107;47.652;19.016;2023-12-20T02:57:51;4.53;;;2.60;;
64682;SDS011;51107;47.652;19.016;2023-12-20T03:00:19;6.50;;;3.37;;
64682;SDS011;51107;47.652;19.016;2023-12-20T03:02:47;3.20;;;1.73;;
64682;SDS011;51107;47.652;19.016;2023-12-20T03:05:16;10.15;;;3.78;;
64682;SDS011;51107;47.652;19.016;2023-12-20T03:07:44;6.20;;;3.15;;
64682;SDS011;51107;47.652;19.016;2023-12-20T03:10:13;8.45;;;3.33;;
64682;SDS011;51107;47.652;19.016;2023-12-20T03:12:50;8.73;;;3.40;;
64682;SDS011;51107;47.652;19.016;2023-12-20T03:15:18;5.72;;;2.70;;
64682;SDS011;51107;47.652;19.016;2023-12-20T03:17:47;1.75;;;1.48;;
64682;SDS011;51107;47.652;19.016;2023-12-20T03:20:16;6.05;;;2.85;;
64682;SDS011;51107;47.652;19.016;2023-12-20T03:22:44;18.70;;;4.72;;
64682;SDS011;51107;47.652;19.016;2023-12-20T03:25:12;11.27;;;4.80;;
64682;SDS011;51107;47.652;19.016;2023-12-20T03:27:40;6.07;;;3.53;;
64682;SDS011;51107;47.652;19.016;2023-12-20T03:30:09;6.60;;;3.90;;
64682;SDS011;51107;47.652;19.016;2023-12-20T03:32:38;4.03;;;2.17;;
64682;SDS011;51107;47.652;19.016;2023-12-20T03:35:06;5.97;;;2.50;;
64682;SDS011;51107;47.652;19.016;2023-12-20T03:37:35;4.80;;;3.53;;
64682;SDS011;51107;47.652;19.016;2023-12-20T03:40:03;4.80;;;3.05;;
64682;SDS011;51107;47.652;19.016;2023-12-20T03:42:31;3.58;;;2.78;;
64682;SDS011;51107;47.652;19.016;2023-12-20T03:44:59;5.57;;;2.62;;
64682;SDS011;51107;47.652;19.016;2023-12-20T03:47:28;7.25;;;1.80;;
64682;SDS011;51107;47.652;19.016;2023-12-20T03:49:56;8.07;;;3.83;;
64682;SDS011;51107;47.652;19.016;2023-12-20T03:52:24;6.30;;;3.22;;
64682;SDS011;51107;47.652;19.016;2023-12-20T03:54:52;9.02;;;3.05;;
64682;SDS011;51107;47.652;19.016;2023-12-20T03:57:21;4.93;;;2.83;;
64682;SDS011;51107;47.652;19.016;2023-12-20T03:59:49;4.28;;;2.67;;
64682;SDS011;51107;47.652;19.016;2023-12-20T04:02:17;6.15;;;2.42;;
64682;SDS011;51107;47.652;19.016;2023-12-20T04:04:45;6.90;;;2.45;;
64682;SDS011;51107;47.652;19.016;2023-12-20T04:07:14;11.63;;;2.05;;
64682;SDS011;51107;47.652;19.016;2023-12-20T04:09:42;10.30;;;4.40;;
64682;SDS011;51107;47.652;19.016;2023-12-20T04:12:11;7.85;;;3.37;;
64682;SDS011;51107;47.652;19.016;2023-12-20T04:14:39;11.20;;;3.97;;
64682;SDS011;51107;47.652;19.016;2023-12-20T04:17:07;5.47;;;3.33;;
64682;SDS011;51107;47.652;19.016;2023-12-20T04:19:35;10.05;;;3.10;;
64682;SDS011;51107;47.652;19.016;2023-12-20T04:22:03;4.93;;;3.12;;
64682;SDS011;51107;47.652;19.016;2023-12-20T04:24:32;3.83;;;2.12;;
64682;SDS011;51107;47.652;19.016;2023-12-20T04:27:00;9.63;;;4.15;;
64682;SDS011;51107;47.652;19.016;2023-12-20T04:29:29;3.33;;;2.83;;
64682;SDS011;51107;47.652;19.016;2023-12-20T04:31:57;6.00;;;1.87;;
64682;SDS011;51107;47.652;19.016;2023-12-20T04:34:26;4.68;;;3.50;;
64682;SDS011;51107;47.652;19.016;2023-12-20T04:36:54;5.87;;;2.30;;
64682;SDS011;51107;47.652;19.016;2023-12-20T04:39:22;4.70;;;2.40;;
64682;SDS011;51107;47.652;19.016;2023-12-20T04:41:51;7.90;;;3.70;;
64682;SDS011;51107;47.652;19.016;2023-12-20T04:44:19;3.05;;;1.83;;
64682;SDS011;51107;47.652;19.016;2023-12-20T04:46:47;4.47;;;2.72;;
64682;SDS011;51107;47.652;19.016;2023-12-20T04:49:15;4.12;;;2.97;;
64682;SDS011;51107;47.652;19.016;2023-12-20T04:51:43;7.55;;;3.15;;
64682;SDS011;51107;47.652;19.016;2023-12-20T04:54:11;3.70;;;1.77;;
64682;SDS011;51107;47.652;19.016;2023-12-20T04:56:41;6.07;;;3.37;;
64682;SDS011;51107;47.652;19.016;2023-12-20T04:59:09;4.25;;;2.78;;
64682;SDS011;51107;47.652;19.016;2023-12-20T05:01:37;4.03;;;3.03;;
64682;SDS011;51107;47.652;19.016;2023-12-20T05:04:06;5.57;;;2.95;;
64682;SDS011;51107;47.652;19.016;2023-12-20T05:06:34;3.78;;;2.37;;
64682;SDS011;51107;47.652;19.016;2023-12-20T05:09:02;6.55;;;2.08;;
64682;SDS011;51107;47.652;19.016;2023-12-20T05:11:31;4.75;;;2.55;;
64682;SDS011;51107;47.652;19.016;2023-12-20T05:13:59;8.60;;;3.12;;
64682;SDS011;51107;47.652;19.016;2023-12-20T05:16:27;5.45;;;2.42;;
64682;SDS011;51107;47.652;19.016;2023-12-20T05:18:55;3.20;;;2.28;;
64682;SDS011;51107;47.652;19.016;2023-12-20T05:21:23;5.40;;;2.47;;
64682;SDS011;51107;47.652;19.016;2023-12-20T05:23:52;5.47;;;2.17;;
64682;SDS011;51107;47.652;19.016;2023-12-20T05:26:20;6.68;;;3.03;;
64682;SDS011;51107;47.652;19.016;2023-12-20T05:28:49;5.32;;;3.08;;
64682;SDS011;51107;47.652;19.016;2023-12-20T05:31:17;7.75;;;3.37;;
64682;SDS011;51107;47.652;19.016;2023-12-20T05:33:46;3.65;;;1.95;;
64682;SDS011;51107;47.652;19.016;2023-12-20T05:36:14;2.80;;;2.08;;
64682;SDS011;51107;47.652;19.016;2023-12-20T05:38:43;2.85;;;1.95;;
64682;SDS011;51107;47.652;19.016;2023-12-20T05:41:12;3.10;;;1.70;;
64682;SDS011;51107;47.652;19.016;2023-12-20T05:43:41;2.47;;;1.87;;
64682;SDS011;51107;47.652;19.016;2023-12-20T05:46:10;8.40;;;3.47;;
64682;SDS011;51107;47.652;19.016;2023-12-20T05:48:40;2.60;;;2.15;;
64682;SDS011;51107;47.652;19.016;2023-12-20T05:51:11;4.25;;;2.95;;
64682;SDS011;51107;47.652;19.016;2023-12-20T05:53:39;6.93;;;1.80;;
64682;SDS011;51107;47.652;19.016;2023-12-20T05:56:07;7.50;;;2.17;;
64682;SDS011;51107;47.652;19.016;2023-12-20T05:58:35;3.97;;;2.47;;
64682;SDS011;51107;47.652;19.016;2023-12-20T06:01:04;4.50;;;2.75;;
64682;SDS011;51107;47.652;19.016;2023-12-20T06:03:33;4.87;;;2.40;;
64682;SDS011;51107;47.652;19.016;2023-12-20T06:06:07;5.53;;;2.03;;
64682;SDS011;51107;47.652;19.016;2023-12-20T06:08:43;3.75;;;2.20;;
64682;SDS011;51107;47.652;19.016;2023-12-20T06:11:12;4.32;;;2.67;;
64682;SDS011;51107;47.652;19.016;2023-12-20T06:13:41;6.75;;;3.62;;
64682;SDS011;51107;47.652;19.016;2023-12-20T06:16:09;6.30;;;2.30;;
64682;SDS011;51107;47.652;19.016;2023-12-20T06:18:38;4.62;;;2.75;;
64682;SDS011;51107;47.652;19.016;2023-12-20T06:21:06;4.15;;;2.78;;
64682;SDS011;51107;47.652;19.016;2023-12-20T06:23:36;9.93;;;4.57;;
64682;SDS011;51107;47.652;19.016;2023-12-20T06:26:04;4.87;;;3.67;;
64682;SDS011;51107;47.652;19.016;2023-12-20T06:28:32;4.15;;;2.50;;
64682;SDS011;51107;47.652;19.016;2023-12-20T06:31:00;5.62;;;2.95;;
64682;SDS011;51107;47.652;19.016;2023-12-20T06:33:29;5.68;;;2.72;;
64682;SDS011;51107;47.652;19.016;2023-12-20T06:35:58;7.22;;;2.85;;
64682;SDS011;51107;47.652;19.016;2023-12-20T06:38:26;9.02;;;5.10;;
64682;SDS011;51107;47.652;19.016;2023-12-20T06:40:55;14.85;;;3.37;;
64682;SDS011;51107;47.652;19.016;2023-12-20T06:43:25;10.70;;;4.55;;
64682;SDS011;51107;47.652;19.016;2023-12-20T06:46:13;1.48;;;1.35;;
64682;SDS011;51107;47.652;19.016;2023-12-20T06:48:41;8.07;;;2.95;;
64682;SDS011;51107;47.652;19.016;2023-12-20T06:51:16;4.18;;;2.35;;
64682;SDS011;51107;47.652;19.016;2023-12-20T06:53:45;4.32;;;2.15;;
64682;SDS011;51107;47.652;19.016;2023-12-20T06:56:13;3.15;;;2.10;;
64682;SDS011;51107;47.652;19.016;2023-12-20T06:58:46;3.95;;;2.58;;
64682;SDS011;51107;47.652;19.016;2023-12-20T07:01:14;4.32;;;2.45;;
64682;SDS011;51107;47.652;19.016;2023-12-20T07:03:43;5.28;;;2.87;;
64682;SDS011;51107;47.652;19.016;2023-12-20T07:06:12;6.43;;;2.95;;
64682;SDS011;51107;47.652;19.016;2023-12-20T07:08:41;1.75;;;1.33;;
64682;SDS011;51107;47.652;19.016;2023-12-20T07:11:09;7.22;;;3.10;;
64682;SDS011;51107;47.652;19.016;2023-12-20T07:13:38;11.20;;;4.07;;
64682;SDS011;51107;47.652;19.016;2023-12-20T07:16:06;3.37;;;2.47;;
64682;SDS011;51107;47.652;19.016;2023-12-20T07:18:34;5.97;;;3.37;;
64682;SDS011;51107;47.652;19.016;2023-12-20T07:21:03;5.03;;;2.78;;
64682;SDS011;51107;47.652;19.016;2023-12-20T07:23:31;5.03;;;3.60;;
64682;SDS011;51107;47.652;19.016;2023-12-20T07:25:59;8.30;;;5.05;;
64682;SDS011;51107;47.652;19.016;2023-12-20T07:28:27;14.52;;;6.10;;
64682;SDS011;51107;47.652;19.016;2023-12-20T07:30:56;8.05;;;4.65;;
64682;SDS011;51107;47.652;19.016;2023-12-20T07:33:24;8.25;;;4.40;;
64682;SDS011;51107;47.652;19.016;2023-12-20T07:35:52;10.85;;;4.20;;
64682;SDS011;51107;47.652;19.016;2023-12-20T07:38:21;23.20;;;6.28;;
64682;SDS011;51107;47.652;19.016;2023-12-20T07:40:49;8.88;;;4.07;;
64682;SDS011;51107;47.652;19.016;2023-12-20T07:43:17;5.53;;;3.67;;
64682;SDS011;51107;47.652;19.016;2023-12-20T07:45:46;9.60;;;6.00;;
64682;SDS011;51107;47.652;19.016;2023-12-20T07:48:14;4.90;;;2.58;;
64682;SDS011;51107;47.652;19.016;2023-12-20T07:50:42;6.50;;;3.92;;
64682;SDS011;51107;47.652;19.016;2023-12-20T07:53:10;9.55;;;3.42;;
64682;SDS011;51107;47.652;19.016;2023-12-20T07:55:38;7.15;;;3.22;;
64682;SDS011;51107;47.652;19.016;2023-12-20T07:58:07;10.52;;;3.90;;
64682;SDS011;51107;47.652;19.016;2023-12-20T08:00:35;2.60;;;2.08;;
64682;SDS011;51107;47.652;19.016;2023-12-20T08:03:03;19.52;;;6.40;;
64682;SDS011;51107;47.652;19.016;2023-12-20T08:05:31;10.43;;;6.00;;
64682;SDS011;51107;47.652;19.016;2023-12-20T08:07:59;8.10;;;3.42;;
64682;SDS011;51107;47.652;19.016;2023-12-20T08:10:28;4.50;;;2.92;;
64682;SDS011;51107;47.652;19.016;2023-12-20T08:12:57;6.43;;;3.58;;
64682;SDS011;51107;47.652;19.016;2023-12-20T08:15:25;14.38;;;5.12;;
64682;SDS011;51107;47.652;19.016;2023-12-20T08:17:54;11.35;;;6.87;;
64682;SDS011;51107;47.652;19.016;2023-12-20T08:20:22;11.77;;;4.28;;
64682;SDS011;51107;47.652;19.016;2023-12-20T08:23:04;6.03;;;3.17;;
64682;SDS011;51107;47.652;19.016;2023-12-20T08:25:31;8.90;;;4.28;;
64682;SDS011;51107;47.652;19.016;2023-12-20T08:28:00;5.68;;;3.85;;
64682;SDS011;51107;47.652;19.016;2023-12-20T08:30:30;8.00;;;3.30;;
64682;SDS011;51107;47.652;19.016;2023-12-20T08:33:01;5.95;;;3.33;;
64682;SDS011;51107;47.652;19.016;2023-12-20T08:35:31;7.28;;;4.70;;
64682;SDS011;51107;47.652;19.016;2023-12-20T08:37:59;19.08;;;4.05;;
64682;SDS011;51107;47.652;19.016;2023-12-20T08:40:27;8.98;;;4.43;;
64682;SDS011;51107;47.652;19.016;2023-12-20T08:42:56;7.37;;;4.20;;
64682;SDS011;51107;47.652;19.016;2023-12-20T08:45:24;4.68;;;3.12;;
64682;SDS011;51107;47.652;19.016;2023-12-20T08:47:52;5.68;;;3.03;;
64682;SDS011;51107;47.652;19.016;2023-12-20T08:50:20;4.12;;;2.87;;
64682;SDS011;51107;47.652;19.016;2023-12-20T08:52:49;9.15;;;4.35;;
64682;SDS011;51107;47.652;19.016;2023-12-20T08:55:17;4.95;;;3.05;;
64682;SDS011;51107;47.652;19.016;2023-12-20T08:57:46;7.18;;;3.10;;
64682;SDS011;51107;47.652;19.016;2023-12-20T09:00:15;2.85;;;2.05;;
64682;SDS011;51107;47.652;19.016;2023-12-20T09:02:43;4.62;;;2.50;;
64682;SDS011;51107;47.652;19.016;2023-12-20T09:05:12;7.37;;;2.97;;
64682;SDS011;51107;47.652;19.016;2023-12-20T09:07:40;4.35;;;2.53;;
64682;SDS011;51107;47.652;19.016;2023-12-20T09:10:08;7.30;;;3.60;;
64682;SDS011;51107;47.652;19.016;2023-12-20T09:12:37;6.12;;;3.33;;
64682;SDS011;51107;47.652;19.016;2023-12-20T09:15:07;16.67;;;5.65;;
64682;SDS011;51107;47.652;19.016;2023-12-20T09:17:36;9.20;;;4.30;;
64682;SDS011;51107;47.652;19.016;2023-12-20T09:20:04;8.80;;;4.25;;
64682;SDS011;51107;47.652;19.016;2023-12-20T09:22:35;9.10;;;4.68;;
64682;SDS011;51107;47.652;19.016;2023-12-20T09:25:04;6.05;;;3.35;;
64682;SDS011;51107;47.652;19.016;2023-12-20T09:27:32;13.02;;;4.55;;
64682;SDS011;51107;47.652;19.016;2023-12-20T09:30:00;9.00;;;5.10;;
64682;SDS011;51107;47.652;19.016;2023-12-20T09:32:29;10.20;;;4.43;;
64682;SDS011;51107;47.652;19.016;2023-12-20T09:34:57;11.35;;;4.40;;
64682;SDS011;51107;47.652;19.016;2023-12-20T09:37:26;5.95;;;2.53;;
64682;SDS011;51107;47.652;19.016;2023-12-20T09:39:55;6.35;;;3.22;;
64682;SDS011;51107;47.652;19.016;2023-12-20T09:42:32;9.10;;;4.45;;
64682;SDS011;51107;47.652;19.016;2023-12-20T09:45:02;6.20;;;3.70;;
64682;SDS011;51107;47.652;19.016;2023-12-20T09:47:35;6.78;;;3.87;;
64682;SDS011;51107;47.652;19.016;2023-12-20T09:50:04;9.95;;;4.50;;
64682;SDS011;51107;47.652;19.016;2023-12-20T09:52:34;15.23;;;5.00;;
64682;SDS011;51107;47.652;19.016;2023-12-20T09:55:04;27.55;;;5.20;;
64682;SDS011;51107;47.652;19.016;2023-12-20T09:57:34;21.58;;;4.68;;
64682;SDS011;51107;47.652;19.016;2023-12-20T10:00:03;14.15;;;4.37;;
64682;SDS011;51107;47.652;19.016;2023-12-20T10:02:38;10.35;;;3.58;;
64682;SDS011;51107;47.652;19.016;2023-12-20T10:05:16;5.62;;;3.75;;
64682;SDS011;51107;47.652;19.016;2023-12-20T10:07:48;7.65;;;3.67;;
64682;SDS011;51107;47.652;19.016;2023-12-20T10:10:17;7.47;;;4.50;;
64682;SDS011;51107;47.652;19.016;2023-12-20T10:13:04;6.87;;;3.67;;
64682;SDS011;51107;47.652;19.016;2023-12-20T10:15:36;8.95;;;4.35;;
64682;SDS011;51107;47.652;19.016;2023-12-20T10:18:05;8.63;;;4.57;;
64682;SDS011;51107;47.652;19.016;2023-12-20T10:20:33;10.00;;;3.90;;
64682;SDS011;51107;47.652;19.016;2023-12-20T10:23:02;8.80;;;4.82;;
64682;SDS011;51107;47.652;19.016;2023-12-20T10:25:30;8.00;;;4.00;;
64682;SDS011;51107;47.652;19.016;2023-12-20T10:28:15;8.00;;;4.30;;
64682;SDS011;51107;47.652;19.016;2023-12-20T10:30:49;4.00;;;2.72;;
64682;SDS011;51107;47.652;19.016;2023-12-20T10:33:27;10.93;;;3.78;;
64682;SDS011;51107;47.652;19.016;2023-12-20T10:35:57;11.68;;;4.18;;
64682;SDS011;51107;47.652;19.016;2023-12-20T10:38:25;8.00;;;3.35;;
64682;SDS011;51107;47.652;19.016;2023-12-20T10:40:54;7.32;;;3.78;;
64682;SDS011;51107;47.652;19.016;2023-12-20T10:43:26;9.38;;;4.00;;
64682;SDS011;51107;47.652;19.016;2023-12-20T10:45:57;6.93;;;3.45;;
64682;SDS011;51107;47.652;19.016;2023-12-20T10:48:25;12.48;;;3.65;;
64682;SDS011;51107;47.652;19.016;2023-12-20T10:50:58;16.17;;;4.40;;
64682;SDS011;51107;47.652;19.016;2023-12-20T10:53:27;9.40;;;4.18;;
64682;SDS011;51107;47.652;19.016;2023-12-20T10:55:55;9.75;;;3.65;;
64682;SDS011;51107;47.652;19.016;2023-12-20T10:58:26;6.75;;;3.62;;
64682;SDS011;51107;47.652;19.016;2023-12-20T11:01:00;6.25;;;3.45;;
64682;SDS011;51107;47.652;19.016;2023-12-20T11:03:34;9.20;;;4.20;;
64682;SDS011;51107;47.652;19.016;2023-12-20T11:06:12;11.65;;;5.65;;
64682;SDS011;51107;47.652;19.016;2023-12-20T11:09:08;16.05;;;6.10;;
64682;SDS011;51107;47.652;19.016;2023-12-20T11:12:10;8.68;;;5.03;;
64682;SDS011;51107;47.652;19.016;2023-12-20T11:14:50;18.35;;;7.32;;
64682;SDS011;51107;47.652;19.016;2023-12-20T11:17:21;18.85;;;8.15;;
64682;SDS011;51107;47.652;19.016;2023-12-20T11:22:20;16.15;;;6.40;;
64682;SDS011;51107;47.652;19.016;2023-12-20T11:24:49;10.10;;;5.62;;
64682;SDS011;51107;47.652;19.016;2023-12-20T11:27:19;15.07;;;6.03;;
64682;SDS011;51107;47.652;19.016;2023-12-20T11:29:51;12.90;;;6.65;;
64682;SDS011;51107;47.652;19.016;2023-12-20T11:34:59;32.45;;;5.78;;
64682;SDS011;51107;47.652;19.016;2023-12-20T11:40:06;18.35;;;6.60;;
64682;SDS011;51107;47.652;19.016;2023-12-20T11:42:38;17.15;;;6.28;;
64682;SDS011;51107;47.652;19.016;2023-12-20T11:45:10;15.57;;;5.43;;
64682;SDS011;51107;47.652;19.016;2023-12-20T11:47:43;25.77;;;8.35;;
64682;SDS011;51107;47.652;19.016;2023-12-20T11:50:15;25.52;;;11.15;;
64682;SDS011;51107;47.652;19.016;2023-12-20T11:52:44;22.20;;;9.73;;
64682;SDS011;51107;47.652;19.016;2023-12-20T11:55:12;21.50;;;9.32;;
64682;SDS011;51107;47.652;19.016;2023-12-20T11:57:41;24.40;;;10.05;;
64682;SDS011;51107;47.652;19.016;2023-12-20T12:00:10;20.88;;;7.62;;
64682;SDS011;51107;47.652;19.016;2023-12-20T12:02:38;18.58;;;7.03;;
64682;SDS011;51107;47.652;19.016;2023-12-20T12:05:07;15.82;;;7.95;;
64682;SDS011;51107;47.652;19.016;2023-12-20T12:07:35;14.02;;;7.20;;
64682;SDS011;51107;47.652;19.016;2023-12-20T12:10:04;13.93;;;6.22;;
64682;SDS011;51107;47.652;19.016;2023-12-20T12:12:33;3.03;;;1.85;;
64682;SDS011;51107;47.652;19.016;2023-12-20T12:15:01;4.53;;;2.05;;
64682;SDS011;51107;47.652;19.016;2023-12-20T12:17:30;12.00;;;6.22;;
64682;SDS011;51107;47.652;19.016;2023-12-20T12:20:03;14.90;;;4.93;;
64682;SDS011;51107;47.652;19.016;2023-12-20T12:22:33;14.40;;;4.03;;
64682;SDS011;51107;47.652;19.016;2023-12-20T12:25:11;3.80;;;2.62;;
64682;SDS011;51107;47.652;19.016;2023-12-20T12:27:41;0.85;;;0.82;;
64682;SDS011;51107;47.652;19.016;2023-12-20T12:30:10;1.17;;;1.00;;
64682;SDS011;51107;47.652;19.016;2023-12-20T12:32:40;3.42;;;1.70;;
64682;SDS011;51107;47.652;19.016;2023-12-20T12:35:09;2.53;;;1.42;;
64682;SDS011;51107;47.652;19.016;2023-12-20T12:37:38;2.12;;;1.05;;
64682;SDS011;51107;47.652;19.016;2023-12-20T12:40:11;4.05;;;1.60;;
64682;SDS011;51107;47.652;19.016;2023-12-20T12:42:41;1.70;;;1.10;;
64682;SDS011;51107;47.652;19.016;2023-12-20T12:45:11;2.80;;;1.65;;
64682;SDS011;51107;47.652;19.016;2023-12-20T12:47:39;1.75;;;1.25;;
64682;SDS011;51107;47.652;19.016;2023-12-20T12:50:08;3.42;;;2.08;;
64682;SDS011;51107;47.652;19.016;2023-12-20T12:52:37;3.87;;;1.27;;
64682;SDS011;51107;47.652;19.016;2023-12-20T12:55:05;3.40;;;2.05;;
64682;SDS011;51107;47.652;19.016;2023-12-20T12:57:34;4.75;;;2.00;;
64682;SDS011;51107;47.652;19.016;2023-12-20T13:00:02;1.92;;;1.10;;
64682;SDS011;51107;47.652;19.016;2023-12-20T13:02:31;1.75;;;1.17;;
64682;SDS011;51107;47.652;19.016;2023-12-20T13:04:59;2.08;;;1.33;;
64682;SDS011;51107;47.652;19.016;2023-12-20T13:07:28;1.40;;;1.27;;
64682;SDS011;51107;47.652;19.016;2023-12-20T13:09:56;4.50;;;1.30;;
64682;SDS011;51107;47.652;19.016;2023-12-20T13:12:25;2.60;;;1.90;;
64682;SDS011;51107;47.652;19.016;2023-12-20T13:14:53;3.78;;;1.65;;
64682;SDS011;51107;47.652;19.016;2023-12-20T13:17:21;2.20;;;1.33;;
64682;SDS011;51107;47.652;19.016;2023-12-20T13:19:49;2.12;;;1.40;;
64682;SDS011;51107;47.652;19.016;2023-12-20T13:22:18;3.70;;;2.17;;
64682;SDS011;51107;47.652;19.016;2023-12-20T13:24:46;3.03;;;1.60;;
64682;SDS011;51107;47.652;19.016;2023-12-20T13:27:14;4.15;;;2.22;;
64682;SDS011;51107;47.652;19.016;2023-12-20T13:29:42;2.30;;;1.45;;
64682;SDS011;51107;47.652;19.016;2023-12-20T13:32:12;3.28;;;1.33;;
64682;SDS011;51107;47.652;19.016;2023-12-20T13:34:41;2.28;;;1.25;;
64682;SDS011;51107;47.652;19.016;2023-12-20T13:37:09;5.18;;;1.67;;
64682;SDS011;51107;47.652;19.016;2023-12-20T13:39:37;1.80;;;1.27;;
64682;SDS011;51107;47.652;19.016;2023-12-20T13:42:05;2.05;;;1.45;;
64682;SDS011;51107;47.652;19.016;2023-12-20T13:44:33;2.70;;;1.65;;
64682;SDS011;51107;47.652;19.016;2023-12-20T13:47:01;2.28;;;1.48;;
64682;SDS011;51107;47.652;19.016;2023-12-20T13:49:31;3.92;;;2.58;;
64682;SDS011;51107;47.652;19.016;2023-12-20T13:51:59;3.65;;;1.58;;
64682;SDS011;51107;47.652;19.016;2023-12-20T13:54:27;2.15;;;1.62;;
64682;SDS011;51107;47.652;19.016;2023-12-20T13:56:56;3.00;;;1.37;;
64682;SDS011;51107;47.652;19.016;2023-12-20T13:59:39;1.90;;;1.08;;
64682;SDS011;51107;47.652;19.016;2023-12-20T14:02:07;2.50;;;1.25;;
64682;SDS011;51107;47.652;19.016;2023-12-20T14:04:36;1.75;;;1.12;;
64682;SDS011;51107;47.652;19.016;2023-12-20T14:07:10;2.57;;;1.57;;
64682;SDS011;51107;47.652;19.016;2023-12-20T14:09:40;2.42;;;1.62;;
64682;SDS011;51107;47.652;19.016;2023-12-20T14:12:14;1.02;;;0.70;;
64682;SDS011;51107;47.652;19.016;2023-12-20T14:14:42;4.97;;;1.37;;
64682;SDS011;51107;47.652;19.016;2023-12-20T14:17:12;5.12;;;1.45;;
64682;SDS011;51107;47.652;19.016;2023-12-20T14:19:40;2.35;;;1.17;;
64682;SDS011;51107;47.652;19.016;2023-12-20T14:22:09;1.20;;;0.98;;
64682;SDS011;51107;47.652;19.016;2023-12-20T14:24:37;4.28;;;1.23;;
64682;SDS011;51107;47.652;19.016;2023-12-20T14:27:05;2.83;;;1.55;;
64682;SDS011;51107;47.652;19.016;2023-12-20T14:29:34;0.95;;;0.88;;
64682;SDS011;51107;47.652;19.016;2023-12-20T14:32:03;2.20;;;1.25;;
64682;SDS011;51107;47.652;19.016;2023-12-20T14:34:31;2.97;;;1.33;;
64682;SDS011;51107;47.652;19.016;2023-12-20T14:37:00;2.87;;;1.60;;
64682;SDS011;51107;47.652;19.016;2023-12-20T14:39:28;2.15;;;1.05;;
64682;SDS011;51107;47.652;19.016;2023-12-20T14:41:56;4.43;;;2.30;;
64682;SDS011;51107;47.652;19.016;2023-12-20T14:44:24;9.32;;;1.98;;
64682;SDS011;51107;47.652;19.016;2023-12-20T14:46:52;2.62;;;1.17;;
64682;SDS011;51107;47.652;19.016;2023-12-20T14:49:20;1.80;;;0.93;;
64682;SDS011;51107;47.652;19.016;2023-12-20T14:51:49;2.28;;;1.60;;